createdAt,value
2018-06-13T00:00:38.383Z,1013.59
2018-06-13T00:01:38.495Z,1013.57
2018-06-13T00:02:38.306Z,1013.52
2018-06-13T00:03:38.304Z,1013.58
2018-06-13T00:04:38.531Z,1013.58
2018-06-13T00:05:38.314Z,1013.54
2018-06-13T00:06:38.314Z,1013.6
2018-06-13T00:07:38.324Z,1013.61
2018-06-13T00:08:38.322Z,1013.63
2018-06-13T00:09:38.305Z,1013.64
2018-06-13T00:10:38.362Z,1013.64
2018-06-13T00:11:38.307Z,1013.72
2018-06-13T00:12:38.426Z,1013.69
2018-06-13T00:13:38.317Z,1013.7
2018-06-13T00:14:38.296Z,1013.7
2018-06-13T00:15:38.303Z,1013.71
2018-06-13T00:16:38.321Z,1013.73
2018-06-13T00:17:38.291Z,1013.71
2018-06-13T00:18:38.316Z,1013.65
2018-06-13T00:19:38.327Z,1013.68
2018-06-13T00:20:38.366Z,1013.66
2018-06-13T00:21:38.326Z,1013.69
2018-06-13T00:22:38.734Z,1013.67
2018-06-13T00:23:38.444Z,1013.68
2018-06-13T00:24:38.712Z,1013.7
2018-06-13T00:25:38.409Z,1013.71
2018-06-13T00:26:38.318Z,1013.69
2018-06-13T00:27:38.312Z,1013.68
2018-06-13T00:28:38.497Z,1013.74
2018-06-13T00:29:38.306Z,1013.75
2018-06-13T00:30:38.319Z,1013.75
2018-06-13T00:31:38.303Z,1013.7
2018-06-13T00:32:38.394Z,1013.79
2018-06-13T00:33:38.350Z,1013.77
2018-06-13T00:34:38.346Z,1013.75
2018-06-13T00:35:38.320Z,1013.79
2018-06-13T00:36:38.313Z,1013.74
2018-06-13T00:37:38.320Z,1013.77
2018-06-13T00:38:38.326Z,1013.75
2018-06-13T00:39:38.350Z,1013.76
2018-06-13T00:40:38.333Z,1013.72
2018-06-13T00:41:38.304Z,1013.76
2018-06-13T00:42:38.347Z,1013.77
2018-06-13T00:43:38.364Z,1013.78
2018-06-13T00:44:38.392Z,1013.81
2018-06-13T00:45:38.396Z,1013.82
2018-06-13T00:46:38.445Z,1013.86
2018-06-13T00:47:38.379Z,1013.86
2018-06-13T00:48:38.437Z,1013.82
2018-06-13T00:49:38.392Z,1013.86
2018-06-13T00:50:38.380Z,1013.85
2018-06-13T00:51:38.356Z,1013.88
2018-06-13T00:52:38.423Z,1013.87
2018-06-13T00:53:38.364Z,1013.82
2018-06-13T00:54:38.338Z,1013.85
2018-06-13T00:55:38.328Z,1013.88
2018-06-13T00:56:38.317Z,1013.84
2018-06-13T00:57:38.321Z,1013.84
2018-06-13T00:58:38.321Z,1013.82
2018-06-13T00:59:38.337Z,1013.82
2018-06-13T01:00:38.343Z,1013.85
2018-06-13T01:01:38.323Z,1013.84
2018-06-13T01:02:38.321Z,1013.8
2018-06-13T01:03:38.325Z,1013.82
2018-06-13T01:04:38.575Z,1013.83
2018-06-13T01:05:38.322Z,1013.85
2018-06-13T01:06:38.322Z,1013.88
2018-06-13T01:07:38.529Z,1013.85
2018-06-13T01:08:38.431Z,1013.82
2018-06-13T01:09:38.536Z,1013.82
2018-06-13T01:10:40.159Z,1013.84
2018-06-13T01:11:38.338Z,1013.82
2018-06-13T01:12:38.330Z,1013.83
2018-06-13T01:13:38.571Z,1013.8
2018-06-13T01:14:38.432Z,1013.83
2018-06-13T01:15:38.355Z,1013.81
2018-06-13T01:16:38.380Z,1013.84
2018-06-13T01:17:38.340Z,1013.83
2018-06-13T01:18:38.344Z,1013.8
2018-06-13T01:19:38.529Z,1013.79
2018-06-13T01:20:38.345Z,1013.82
2018-06-13T01:21:38.391Z,1013.83
2018-06-13T01:22:38.352Z,1013.86
2018-06-13T01:23:38.447Z,1013.83
2018-06-13T01:24:38.658Z,1013.85
2018-06-13T01:25:38.333Z,1013.82
2018-06-13T01:26:38.372Z,1013.86
2018-06-13T01:27:38.427Z,1013.85
2018-06-13T01:28:38.372Z,1013.85
2018-06-13T01:29:38.508Z,1013.81
2018-06-13T01:30:38.394Z,1013.8
2018-06-13T01:31:38.345Z,1013.8
2018-06-13T01:32:38.455Z,1013.8
2018-06-13T01:33:38.351Z,1013.78
2018-06-13T01:34:38.395Z,1013.76
2018-06-13T01:35:38.487Z,1013.71
2018-06-13T01:36:38.348Z,1013.71
2018-06-13T01:37:38.389Z,1013.72
2018-06-13T01:38:38.409Z,1013.68
2018-06-13T01:39:38.398Z,1013.72
2018-06-13T01:40:38.368Z,1013.71
2018-06-13T01:41:38.368Z,1013.68
2018-06-13T01:42:38.346Z,1013.76
2018-06-13T01:43:38.405Z,1013.69
2018-06-13T01:44:38.535Z,1013.76
2018-06-13T01:45:38.403Z,1013.76
2018-06-13T01:46:38.395Z,1013.76
2018-06-13T01:47:38.444Z,1013.75
2018-06-13T01:48:38.533Z,1013.78
2018-06-13T01:49:38.384Z,1013.84
2018-06-13T01:50:38.354Z,1013.8
2018-06-13T01:51:38.416Z,1013.8
2018-06-13T01:52:38.468Z,1013.8
2018-06-13T01:53:38.498Z,1013.81
2018-06-13T01:54:38.427Z,1013.87
2018-06-13T01:55:38.379Z,1013.85
2018-06-13T01:56:38.452Z,1013.86
2018-06-13T01:57:38.373Z,1013.83
2018-06-13T01:58:38.402Z,1013.87
2018-06-13T01:59:38.414Z,1013.84
2018-06-13T02:00:38.393Z,1013.86
2018-06-13T02:01:38.357Z,1013.81
2018-06-13T02:02:38.355Z,1013.79
2018-06-13T02:03:38.362Z,1013.81
2018-06-13T02:04:38.369Z,1013.79
2018-06-13T02:05:38.368Z,1013.77
2018-06-13T02:06:38.371Z,1013.78
2018-06-13T02:07:38.366Z,1013.81
2018-06-13T02:08:38.370Z,1013.82
2018-06-13T02:09:38.374Z,1013.84
2018-06-13T02:10:38.381Z,1013.77
2018-06-13T02:11:38.398Z,1013.77
2018-06-13T02:12:38.359Z,1013.77
2018-06-13T02:13:38.359Z,1013.75
2018-06-13T02:14:38.379Z,1013.77
2018-06-13T02:15:38.392Z,1013.75
2018-06-13T02:16:38.364Z,1013.77
2018-06-13T02:17:38.425Z,1013.8
2018-06-13T02:18:38.487Z,1013.79
2018-06-13T02:19:38.442Z,1013.79
2018-06-13T02:20:38.532Z,1013.84
2018-06-13T02:21:38.457Z,1013.84
2018-06-13T02:22:38.429Z,1013.8
2018-06-13T02:23:38.385Z,1013.84
2018-06-13T02:24:38.375Z,1013.83
2018-06-13T02:25:38.394Z,1013.86
2018-06-13T02:26:38.392Z,1013.87
2018-06-13T02:27:38.387Z,1013.89
2018-06-13T02:28:38.408Z,1013.86
2018-06-13T02:29:38.395Z,1013.85
2018-06-13T02:30:38.452Z,1013.84
2018-06-13T02:31:38.631Z,1013.83
2018-06-13T02:32:38.375Z,1013.8
2018-06-13T02:33:38.382Z,1013.84
2018-06-13T02:34:38.388Z,1013.84
2018-06-13T02:35:38.385Z,1013.83
2018-06-13T02:36:38.477Z,1013.82
2018-06-13T02:37:38.513Z,1013.87
2018-06-13T02:38:38.393Z,1013.86
2018-06-13T02:39:38.373Z,1013.81
2018-06-13T02:40:38.430Z,1013.86
2018-06-13T02:41:38.455Z,1013.87
2018-06-13T02:42:38.389Z,1013.89
2018-06-13T02:43:38.415Z,1013.92
2018-06-13T02:44:38.406Z,1013.86
2018-06-13T02:45:38.422Z,1013.93
2018-06-13T02:46:38.436Z,1013.93
2018-06-13T02:47:38.395Z,1013.92
2018-06-13T02:48:38.407Z,1013.91
2018-06-13T02:49:38.383Z,1013.9
2018-06-13T02:50:38.461Z,1013.91
2018-06-13T02:51:38.404Z,1013.93
2018-06-13T02:52:38.396Z,1013.96
2018-06-13T02:53:38.447Z,1013.97
2018-06-13T02:54:38.434Z,1013.97
2018-06-13T02:55:38.393Z,1014.02
2018-06-13T02:56:38.396Z,1014.03
2018-06-13T02:57:38.471Z,1014.05
2018-06-13T02:58:38.413Z,1014.01
2018-06-13T02:59:38.496Z,1014
2018-06-13T03:00:38.392Z,1014.05
2018-06-13T03:01:38.433Z,1014
2018-06-13T03:02:38.416Z,1014
2018-06-13T03:03:38.395Z,1014.01
2018-06-13T03:04:38.421Z,1013.97
2018-06-13T03:05:38.386Z,1013.99
2018-06-13T03:06:38.396Z,1013.97
2018-06-13T03:07:38.550Z,1013.99
2018-06-13T03:08:38.390Z,1013.99
2018-06-13T03:09:38.386Z,1014
2018-06-13T03:10:38.382Z,1014
2018-06-13T03:11:38.394Z,1014.03
2018-06-13T03:12:38.416Z,1014.04
2018-06-13T03:13:38.588Z,1014.04
2018-06-13T03:14:38.416Z,1014.05
2018-06-13T03:15:38.418Z,1014.06
2018-06-13T03:16:38.412Z,1014.03
2018-06-13T03:17:38.433Z,1014.05
2018-06-13T03:18:38.408Z,1014.05
2018-06-13T03:19:38.377Z,1014.04
2018-06-13T03:20:38.387Z,1014.05
2018-06-13T03:21:38.393Z,1014.05
2018-06-13T03:22:38.398Z,1014.03
2018-06-13T03:23:38.406Z,1014.06
2018-06-13T03:24:38.402Z,1014.07
2018-06-13T03:25:38.392Z,1014.08
2018-06-13T03:26:38.404Z,1014.07
2018-06-13T03:27:38.640Z,1014.05
2018-06-13T03:28:38.405Z,1014.09
2018-06-13T03:29:38.420Z,1014.1
2018-06-13T03:30:38.417Z,1014.1
2018-06-13T03:31:38.419Z,1014.1
2018-06-13T03:32:38.512Z,1014.09
2018-06-13T03:33:38.950Z,1014.11
2018-06-13T03:34:38.407Z,1014.15
2018-06-13T03:35:38.417Z,1014.14
2018-06-13T03:36:38.439Z,1014.2
2018-06-13T03:37:38.391Z,1014.14
2018-06-13T03:38:38.432Z,1014.2
2018-06-13T03:39:38.440Z,1014.27
2018-06-13T03:40:38.484Z,1014.24
2018-06-13T03:41:38.409Z,1014.27
2018-06-13T03:42:38.480Z,1014.27
2018-06-13T03:43:38.400Z,1014.31
2018-06-13T03:44:38.425Z,1014.32
2018-06-13T03:45:38.408Z,1014.33
2018-06-13T03:46:38.420Z,1014.34
2018-06-13T03:47:38.445Z,1014.36
2018-06-13T03:48:38.475Z,1014.34
2018-06-13T03:49:38.438Z,1014.34
2018-06-13T03:50:38.445Z,1014.36
2018-06-13T03:51:38.424Z,1014.38
2018-06-13T03:52:38.450Z,1014.38
2018-06-13T03:53:38.561Z,1014.38
2018-06-13T03:54:38.453Z,1014.35
2018-06-13T03:55:38.408Z,1014.38
2018-06-13T03:56:38.560Z,1014.31
2018-06-13T03:57:38.546Z,1014.37
2018-06-13T03:58:38.512Z,1014.35
2018-06-13T03:59:38.411Z,1014.33
2018-06-13T04:00:38.419Z,1014.34
2018-06-13T04:01:38.498Z,1014.33
2018-06-13T04:02:38.484Z,1014.28
2018-06-13T04:03:38.661Z,1014.34
2018-06-13T04:04:38.431Z,1014.32
2018-06-13T04:05:38.625Z,1014.37
2018-06-13T04:06:38.507Z,1014.37
2018-06-13T04:07:38.428Z,1014.39
2018-06-13T04:08:38.425Z,1014.38
2018-06-13T04:09:38.423Z,1014.42
2018-06-13T04:10:38.499Z,1014.4
2018-06-13T04:11:38.467Z,1014.42
2018-06-13T04:12:38.468Z,1014.4
2018-06-13T04:13:38.547Z,1014.43
2018-06-13T04:14:38.450Z,1014.43
2018-06-13T04:15:38.428Z,1014.42
2018-06-13T04:16:38.512Z,1014.43
2018-06-13T04:17:38.445Z,1014.46
2018-06-13T04:18:38.465Z,1014.44
2018-06-13T04:19:38.439Z,1014.43
2018-06-13T04:20:38.446Z,1014.46
2018-06-13T04:21:38.447Z,1014.43
2018-06-13T04:22:38.440Z,1014.48
2018-06-13T04:23:38.468Z,1014.46
2018-06-13T04:24:38.428Z,1014.46
2018-06-13T04:25:38.449Z,1014.46
2018-06-13T04:26:38.437Z,1014.48
2018-06-13T04:27:38.473Z,1014.47
2018-06-13T04:28:38.451Z,1014.48
2018-06-13T04:29:38.439Z,1014.49
2018-06-13T04:30:38.469Z,1014.49
2018-06-13T04:31:38.454Z,1014.5
2018-06-13T04:32:38.513Z,1014.52
2018-06-13T04:33:38.523Z,1014.53
2018-06-13T04:34:38.455Z,1014.58
2018-06-13T04:35:38.445Z,1014.53
2018-06-13T04:36:38.475Z,1014.54
2018-06-13T04:37:38.433Z,1014.57
2018-06-13T04:38:38.450Z,1014.57
2018-06-13T04:39:38.479Z,1014.67
2018-06-13T04:40:38.457Z,1014.66
2018-06-13T04:41:38.460Z,1014.66
2018-06-13T04:42:38.433Z,1014.68
2018-06-13T04:43:38.439Z,1014.71
2018-06-13T04:44:38.451Z,1014.74
2018-06-13T04:45:38.454Z,1014.73
2018-06-13T04:46:38.462Z,1014.73
2018-06-13T04:47:38.450Z,1014.7
2018-06-13T04:48:38.449Z,1014.75
2018-06-13T04:49:38.491Z,1014.73
2018-06-13T04:50:38.509Z,1014.74
2018-06-13T04:51:38.604Z,1014.75
2018-06-13T04:52:38.466Z,1014.76
2018-06-13T04:53:38.451Z,1014.78
2018-06-13T04:54:38.487Z,1014.78
2018-06-13T04:55:38.453Z,1014.75
2018-06-13T04:56:38.455Z,1014.76
2018-06-13T04:57:38.808Z,1014.79
2018-06-13T04:58:38.636Z,1014.75
2018-06-13T04:59:38.448Z,1014.78
2018-06-13T05:00:38.444Z,1014.78
2018-06-13T05:01:38.462Z,1014.78
2018-06-13T05:02:38.515Z,1014.79
2018-06-13T05:03:38.591Z,1014.74
2018-06-13T05:04:38.501Z,1014.84
2018-06-13T05:05:38.492Z,1014.77
2018-06-13T05:06:38.461Z,1014.76
2018-06-13T05:07:38.513Z,1014.78
2018-06-13T05:08:38.509Z,1014.83
2018-06-13T05:09:38.474Z,1014.81
2018-06-13T05:10:38.536Z,1014.9
2018-06-13T05:11:38.468Z,1014.92
2018-06-13T05:12:38.479Z,1014.88
2018-06-13T05:13:38.607Z,1014.84
2018-06-13T05:14:38.459Z,1014.92
2018-06-13T05:15:38.489Z,1014.93
2018-06-13T05:16:38.527Z,1014.92
2018-06-13T05:17:38.516Z,1014.93
2018-06-13T05:18:38.475Z,1014.94
2018-06-13T05:19:38.476Z,1014.99
2018-06-13T05:20:38.472Z,1015
2018-06-13T05:21:38.533Z,1015
2018-06-13T05:22:38.477Z,1014.98
2018-06-13T05:23:38.503Z,1015.02
2018-06-13T05:24:38.475Z,1014.99
2018-06-13T05:25:38.482Z,1015
2018-06-13T05:26:38.503Z,1014.96
2018-06-13T05:27:38.595Z,1015.01
2018-06-13T05:28:38.556Z,1014.99
2018-06-13T05:29:38.533Z,1015.03
2018-06-13T05:30:38.504Z,1015.02
2018-06-13T05:31:38.464Z,1015.04
2018-06-13T05:32:38.586Z,1015.02
2018-06-13T05:33:38.476Z,1015.08
2018-06-13T05:34:38.483Z,1015.07
2018-06-13T05:35:38.507Z,1015.05
2018-06-13T05:36:38.456Z,1015.08
2018-06-13T05:37:38.514Z,1015.05
2018-06-13T05:38:38.521Z,1015.04
2018-06-13T05:39:38.480Z,1015.11
2018-06-13T05:40:38.482Z,1015.07
2018-06-13T05:41:38.506Z,1015.11
2018-06-13T05:42:38.512Z,1015.07
2018-06-13T05:43:38.474Z,1015.11
2018-06-13T05:44:38.521Z,1015.11
2018-06-13T05:45:38.490Z,1015.1
2018-06-13T05:46:38.473Z,1015.12
2018-06-13T05:47:38.515Z,1015.11
2018-06-13T05:48:38.530Z,1015.13
2018-06-13T05:49:38.483Z,1015.14
2018-06-13T05:50:38.489Z,1015.18
2018-06-13T05:51:38.465Z,1015.17
2018-06-13T05:52:38.541Z,1015.16
2018-06-13T05:53:38.479Z,1015.26
2018-06-13T05:54:38.496Z,1015.25
2018-06-13T05:55:38.519Z,1015.25
2018-06-13T05:56:38.500Z,1015.34
2018-06-13T05:57:38.507Z,1015.32
2018-06-13T05:58:38.573Z,1015.3
2018-06-13T05:59:38.500Z,1015.33
2018-06-13T06:00:38.490Z,1015.33
2018-06-13T06:01:38.574Z,1015.35
2018-06-13T06:02:38.541Z,1015.35
2018-06-13T06:03:38.527Z,1015.34
2018-06-13T06:04:38.565Z,1015.4
2018-06-13T06:05:38.727Z,1015.38
2018-06-13T06:06:38.511Z,1015.36
2018-06-13T06:07:38.516Z,1015.39
2018-06-13T06:08:38.554Z,1015.38
2018-06-13T06:09:38.518Z,1015.36
2018-06-13T06:10:38.533Z,1015.36
2018-06-13T06:11:38.547Z,1015.35
2018-06-13T06:12:38.540Z,1015.37
2018-06-13T06:13:38.929Z,1015.39
2018-06-13T06:14:38.533Z,1015.39
2018-06-13T06:15:38.559Z,1015.37
2018-06-13T06:16:38.513Z,1015.37
2018-06-13T06:17:38.547Z,1015.37
2018-06-13T06:18:38.652Z,1015.39
2018-06-13T06:19:38.602Z,1015.37
2018-06-13T06:20:38.718Z,1015.37
2018-06-13T06:21:38.537Z,1015.36
2018-06-13T06:22:38.517Z,1015.4
2018-06-13T06:23:38.735Z,1015.38
2018-06-13T06:24:38.493Z,1015.42
2018-06-13T06:25:38.593Z,1015.43
2018-06-13T06:26:38.534Z,1015.41
2018-06-13T06:27:38.646Z,1015.43
2018-06-13T06:28:39.229Z,1015.47
2018-06-13T06:29:38.563Z,1015.45
2018-06-13T06:30:38.520Z,1015.5
2018-06-13T06:31:38.527Z,1015.45
2018-06-13T06:32:38.526Z,1015.52
2018-06-13T06:33:38.534Z,1015.51
2018-06-13T06:34:38.652Z,1015.52
2018-06-13T06:35:38.523Z,1015.51
2018-06-13T06:36:38.521Z,1015.54
2018-06-13T06:37:38.565Z,1015.51
2018-06-13T06:38:38.526Z,1015.5
2018-06-13T06:39:38.537Z,1015.51
2018-06-13T06:40:38.583Z,1015.46
2018-06-13T06:41:38.536Z,1015.51
2018-06-13T06:42:38.514Z,1015.47
2018-06-13T06:43:38.556Z,1015.49
2018-06-13T06:44:38.951Z,1015.49
2018-06-13T06:45:38.523Z,1015.56
2018-06-13T06:46:38.511Z,1015.54
2018-06-13T06:47:38.527Z,1015.54
2018-06-13T06:48:38.513Z,1015.57
2018-06-13T06:49:38.645Z,1015.56
2018-06-13T06:50:38.750Z,1015.56
2018-06-13T06:51:38.533Z,1015.59
2018-06-13T06:52:38.536Z,1015.57
2018-06-13T06:53:38.522Z,1015.57
2018-06-13T06:54:38.519Z,1015.52
2018-06-13T06:55:38.731Z,1015.56
2018-06-13T06:56:38.522Z,1015.56
2018-06-13T06:57:38.563Z,1015.61
2018-06-13T06:58:38.555Z,1015.65
2018-06-13T06:59:38.531Z,1015.66
2018-06-13T07:00:38.532Z,1015.69
2018-06-13T07:01:38.678Z,1015.7
2018-06-13T07:02:38.743Z,1015.73
2018-06-13T07:03:38.529Z,1015.77
2018-06-13T07:04:38.564Z,1015.73
2018-06-13T07:05:38.573Z,1015.77
2018-06-13T07:06:38.544Z,1015.74
2018-06-13T07:07:38.523Z,1015.79
2018-06-13T07:08:38.522Z,1015.75
2018-06-13T07:09:38.576Z,1015.82
2018-06-13T07:10:38.525Z,1015.78
2018-06-13T07:11:38.554Z,1015.8
2018-06-13T07:12:38.515Z,1015.78
2018-06-13T07:13:38.575Z,1015.8
2018-06-13T07:14:38.704Z,1015.83
2018-06-13T07:15:38.806Z,1015.84
2018-06-13T07:16:38.723Z,1015.86
2018-06-13T07:17:38.582Z,1015.83
2018-06-13T07:18:38.544Z,1015.88
2018-06-13T07:19:38.589Z,1015.91
2018-06-13T07:20:38.550Z,1015.91
2018-06-13T07:21:38.544Z,1015.93
2018-06-13T07:22:38.539Z,1015.88
2018-06-13T07:23:38.618Z,1015.92
2018-06-13T07:24:38.615Z,1015.95
2018-06-13T07:25:38.527Z,1015.88
2018-06-13T07:26:38.534Z,1015.95
2018-06-13T07:27:38.541Z,1015.88
2018-06-13T07:28:38.559Z,1015.89
2018-06-13T07:29:38.516Z,1015.88
2018-06-13T07:30:38.574Z,1015.83
2018-06-13T07:31:38.523Z,1015.87
2018-06-13T07:32:39.190Z,1015.91
2018-06-13T07:33:38.651Z,1015.9
2018-06-13T07:34:38.546Z,1015.92
2018-06-13T07:35:38.558Z,1015.95
2018-06-13T07:36:38.534Z,1015.98
2018-06-13T07:37:38.721Z,1015.92
2018-06-13T07:38:38.548Z,1015.97
2018-06-13T07:39:38.537Z,1015.93
2018-06-13T07:40:38.528Z,1015.9
2018-06-13T07:41:38.595Z,1015.91
2018-06-13T07:42:38.553Z,1015.9
2018-06-13T07:43:38.548Z,1015.94
2018-06-13T07:44:38.529Z,1015.95
2018-06-13T07:45:38.533Z,1015.93
2018-06-13T07:46:38.541Z,1015.95
2018-06-13T07:47:38.792Z,1016
2018-06-13T07:48:38.606Z,1015.94
2018-06-13T07:49:38.654Z,1015.93
2018-06-13T07:50:38.559Z,1015.93
2018-06-13T07:51:38.665Z,1015.9
2018-06-13T07:52:38.584Z,1015.91
2018-06-13T07:53:38.543Z,1015.88
2018-06-13T07:54:38.581Z,1015.94
2018-06-13T07:55:38.586Z,1015.96
2018-06-13T07:56:38.549Z,1015.88
2018-06-13T07:57:38.552Z,1015.88
2018-06-13T07:58:38.547Z,1015.87
2018-06-13T07:59:38.610Z,1015.83
2018-06-13T08:00:38.553Z,1015.86
2018-06-13T08:01:38.543Z,1015.84
2018-06-13T08:02:38.554Z,1015.83
2018-06-13T08:03:38.565Z,1015.88
2018-06-13T08:04:38.707Z,1015.84
2018-06-13T08:05:38.555Z,1015.89
2018-06-13T08:06:38.568Z,1015.9
2018-06-13T08:07:38.658Z,1015.95
2018-06-13T08:08:39.041Z,1015.94
2018-06-13T08:09:38.617Z,1015.96
2018-06-13T08:10:38.646Z,1015.93
2018-06-13T08:11:38.547Z,1015.97
2018-06-13T08:12:38.618Z,1015.95
2018-06-13T08:13:38.537Z,1015.94
2018-06-13T08:14:38.637Z,1015.96
2018-06-13T08:15:38.596Z,1015.96
2018-06-13T08:16:38.605Z,1015.92
2018-06-13T08:17:38.678Z,1015.99
2018-06-13T08:18:38.648Z,1015.96
2018-06-13T08:19:38.623Z,1016.01
2018-06-13T08:20:38.579Z,1016.02
2018-06-13T08:21:38.565Z,1016.02
2018-06-13T08:22:38.566Z,1016.03
2018-06-13T08:23:38.558Z,1016.04
2018-06-13T08:24:38.604Z,1016.03
2018-06-13T08:25:38.706Z,1016.04
2018-06-13T08:26:38.787Z,1016.03
2018-06-13T08:27:38.797Z,1016.07
2018-06-13T08:28:38.583Z,1016.03
2018-06-13T08:29:38.555Z,1016.11
2018-06-13T08:30:38.571Z,1016.07
2018-06-13T08:31:38.557Z,1016.04
2018-06-13T08:32:38.623Z,1016.04
2018-06-13T08:33:38.674Z,1016.06
2018-06-13T08:34:38.571Z,1015.99
2018-06-13T08:35:38.569Z,1016.04
2018-06-13T08:36:38.874Z,1016
2018-06-13T08:37:38.612Z,1015.97
2018-06-13T08:38:38.572Z,1015.99
2018-06-13T08:39:38.566Z,1016.03
2018-06-13T08:40:38.755Z,1016.03
2018-06-13T08:41:38.567Z,1015.95
2018-06-13T08:42:38.614Z,1015.95
2018-06-13T08:43:38.622Z,1015.99
2018-06-13T08:44:38.572Z,1016.01
2018-06-13T08:45:38.610Z,1016.03
2018-06-13T08:46:38.581Z,1016.06
2018-06-13T08:47:38.677Z,1016.04
2018-06-13T08:48:38.646Z,1016.11
2018-06-13T08:49:38.812Z,1016.15
2018-06-13T08:50:38.610Z,1016.11
2018-06-13T08:51:38.574Z,1016.12
2018-06-13T08:52:38.719Z,1016.11
2018-06-13T08:53:38.626Z,1016.17
2018-06-13T08:54:38.696Z,1016.16
2018-06-13T08:55:38.645Z,1016.14
2018-06-13T08:56:38.579Z,1016.13
2018-06-13T08:57:38.634Z,1016.14
2018-06-13T08:58:38.580Z,1016.16
2018-06-13T08:59:38.720Z,1016.12
2018-06-13T09:00:38.861Z,1016.11
2018-06-13T09:01:38.588Z,1016.12
2018-06-13T09:02:38.579Z,1016.1
2018-06-13T09:03:38.584Z,1016.09
2018-06-13T09:04:38.582Z,1016.08
2018-06-13T09:05:38.561Z,1016.11
2018-06-13T09:06:38.567Z,1016.11
2018-06-13T09:07:38.571Z,1016.13
2018-06-13T09:08:38.581Z,1016.14
2018-06-13T09:09:38.588Z,1016.2
2018-06-13T09:10:38.587Z,1016.21
2018-06-13T09:11:38.607Z,1016.17
2018-06-13T09:12:38.588Z,1016.2
2018-06-13T09:13:38.607Z,1016.2
2018-06-13T09:14:38.579Z,1016.21
2018-06-13T09:15:38.570Z,1016.16
2018-06-13T09:16:38.585Z,1016.13
2018-06-13T09:17:38.602Z,1016.18
2018-06-13T09:18:38.584Z,1016.16
2018-06-13T09:19:38.588Z,1016.19
2018-06-13T09:20:38.587Z,1016.19
2018-06-13T09:21:38.590Z,1016.19
2018-06-13T09:22:38.577Z,1016.21
2018-06-13T09:23:38.680Z,1016.19
2018-06-13T09:24:38.610Z,1016.19
2018-06-13T09:25:38.580Z,1016.18
2018-06-13T09:26:38.904Z,1016.21
2018-06-13T09:27:38.780Z,1016.27
2018-06-13T09:28:38.583Z,1016.26
2018-06-13T09:29:38.669Z,1016.24
2018-06-13T09:30:38.591Z,1016.26
2018-06-13T09:31:38.606Z,1016.25
2018-06-13T09:32:39.238Z,1016.24
2018-06-13T09:33:38.621Z,1016.23
2018-06-13T09:34:38.578Z,1016.24
2018-06-13T09:35:38.774Z,1016.25
2018-06-13T09:36:38.606Z,1016.26
2018-06-13T09:37:39.032Z,1016.28
2018-06-13T09:38:38.636Z,1016.36
2018-06-13T09:39:38.623Z,1016.36
2018-06-13T09:40:38.589Z,1016.36
2018-06-13T09:41:38.614Z,1016.39
2018-06-13T09:42:38.614Z,1016.42
2018-06-13T09:43:38.612Z,1016.34
2018-06-13T09:44:38.601Z,1016.43
2018-06-13T09:45:38.643Z,1016.47
2018-06-13T09:46:38.599Z,1016.45
2018-06-13T09:47:38.624Z,1016.43
2018-06-13T09:48:38.641Z,1016.48
2018-06-13T09:49:38.593Z,1016.47
2018-06-13T09:50:38.590Z,1016.53
2018-06-13T09:51:38.617Z,1016.51
2018-06-13T09:52:38.601Z,1016.52
2018-06-13T09:53:38.605Z,1016.52
2018-06-13T09:54:38.610Z,1016.55
2018-06-13T09:55:38.597Z,1016.59
2018-06-13T09:56:38.675Z,1016.61
2018-06-13T09:57:38.627Z,1016.62
2018-06-13T09:58:38.621Z,1016.59
2018-06-13T09:59:38.628Z,1016.65
2018-06-13T10:00:38.612Z,1016.63
2018-06-13T10:01:38.751Z,1016.62
2018-06-13T10:02:38.684Z,1016.56
2018-06-13T10:03:38.616Z,1016.58
2018-06-13T10:04:38.773Z,1016.55
2018-06-13T10:05:38.618Z,1016.57
2018-06-13T10:06:38.814Z,1016.6
2018-06-13T10:07:38.610Z,1016.57
2018-06-13T10:08:38.731Z,1016.57
2018-06-13T10:09:38.596Z,1016.59
2018-06-13T10:10:38.624Z,1016.57
2018-06-13T10:11:38.600Z,1016.6
2018-06-13T10:12:38.712Z,1016.54
2018-06-13T10:13:38.608Z,1016.58
2018-06-13T10:14:38.623Z,1016.59
2018-06-13T10:15:38.615Z,1016.59
2018-06-13T10:16:38.657Z,1016.56
2018-06-13T10:17:38.751Z,1016.57
2018-06-13T10:18:38.796Z,1016.55
2018-06-13T10:19:38.626Z,1016.56
2018-06-13T10:20:38.625Z,1016.56
2018-06-13T10:21:38.660Z,1016.58
2018-06-13T10:22:38.624Z,1016.6
2018-06-13T10:23:38.685Z,1016.62
2018-06-13T10:24:38.646Z,1016.62
2018-06-13T10:25:38.649Z,1016.66
2018-06-13T10:26:38.715Z,1016.64
2018-06-13T10:27:38.631Z,1016.73
2018-06-13T10:28:38.625Z,1016.68
2018-06-13T10:29:38.636Z,1016.7
2018-06-13T10:30:38.651Z,1016.71
2018-06-13T10:31:38.635Z,1016.68
2018-06-13T10:32:38.630Z,1016.68
2018-06-13T10:33:38.666Z,1016.73
2018-06-13T10:34:38.618Z,1016.7
2018-06-13T10:35:38.639Z,1016.74
2018-06-13T10:36:39.135Z,1016.75
2018-06-13T10:37:38.622Z,1016.8
2018-06-13T10:38:38.830Z,1016.77
2018-06-13T10:39:38.690Z,1016.77
2018-06-13T10:40:38.697Z,1016.76
2018-06-13T10:41:38.632Z,1016.78
2018-06-13T10:42:38.790Z,1016.78
2018-06-13T10:43:38.630Z,1016.81
2018-06-13T10:44:38.660Z,1016.82
2018-06-13T10:45:38.859Z,1016.81
2018-06-13T10:46:38.645Z,1016.78
2018-06-13T10:47:38.631Z,1016.85
2018-06-13T10:48:38.829Z,1016.83
2018-06-13T10:49:38.782Z,1016.85
2018-06-13T10:50:38.677Z,1016.85
2018-06-13T10:51:38.724Z,1016.84
2018-06-13T10:52:38.647Z,1016.85
2018-06-13T10:53:38.935Z,1016.86
2018-06-13T10:54:38.674Z,1016.82
2018-06-13T10:55:38.803Z,1016.83
2018-06-13T10:56:38.642Z,1016.85
2018-06-13T10:57:38.714Z,1016.85
2018-06-13T10:58:38.916Z,1016.8
2018-06-13T10:59:38.631Z,1016.87
2018-06-13T11:00:38.666Z,1016.84
2018-06-13T11:01:38.664Z,1016.82
2018-06-13T11:02:38.949Z,1016.82
2018-06-13T11:03:38.672Z,1016.87
2018-06-13T11:04:38.862Z,1016.82
2018-06-13T11:05:38.725Z,1016.9
2018-06-13T11:06:38.660Z,1016.85
2018-06-13T11:07:38.695Z,1016.82
2018-06-13T11:08:38.676Z,1016.88
2018-06-13T11:09:38.794Z,1016.88
2018-06-13T11:10:38.637Z,1016.9
2018-06-13T11:11:38.752Z,1016.85
2018-06-13T11:12:38.648Z,1016.88
2018-06-13T11:13:39.371Z,1016.87
2018-06-13T11:14:39.350Z,1016.9
2018-06-13T11:15:39.457Z,1016.9
2018-06-13T11:16:39.397Z,1016.89
2018-06-13T11:17:39.389Z,1016.92
2018-06-13T11:18:39.483Z,1016.95
2018-06-13T11:19:39.698Z,1016.93
2018-06-13T11:20:39.432Z,1016.9
2018-06-13T11:21:39.400Z,1016.95
2018-06-13T11:22:39.398Z,1016.93
2018-06-13T11:23:39.385Z,1016.91
2018-06-13T11:24:39.466Z,1016.94
2018-06-13T11:25:39.420Z,1016.97
2018-06-13T11:26:39.429Z,1016.96
2018-06-13T11:27:39.727Z,1016.96
2018-06-13T11:28:39.359Z,1016.92
2018-06-13T11:29:39.437Z,1016.92
2018-06-13T11:30:39.353Z,1016.9
2018-06-13T11:31:39.520Z,1016.9
2018-06-13T11:32:39.410Z,1016.9
2018-06-13T11:33:39.445Z,1016.87
2018-06-13T11:34:39.381Z,1016.89
2018-06-13T11:35:39.379Z,1016.85
2018-06-13T11:36:39.330Z,1016.87
2018-06-13T11:37:39.372Z,1016.89
2018-06-13T11:38:39.388Z,1016.9
2018-06-13T11:39:39.340Z,1016.89
2018-06-13T11:40:39.347Z,1016.87
2018-06-13T11:41:39.381Z,1016.89
2018-06-13T11:42:39.405Z,1016.86
2018-06-13T11:43:39.428Z,1016.9
2018-06-13T11:44:39.375Z,1016.89
2018-06-13T11:45:39.358Z,1016.9
2018-06-13T11:46:39.375Z,1016.85
2018-06-13T11:47:39.372Z,1016.83
2018-06-13T11:48:39.469Z,1016.92
2018-06-13T11:49:39.371Z,1016.89
2018-06-13T11:50:39.375Z,1016.91
2018-06-13T11:51:39.568Z,1016.93
2018-06-13T11:52:39.423Z,1016.94
2018-06-13T11:53:39.581Z,1016.88
2018-06-13T11:54:39.583Z,1016.94
2018-06-13T11:55:39.563Z,1016.92
2018-06-13T11:56:39.920Z,1016.9
2018-06-13T11:57:39.421Z,1016.88
2018-06-13T11:58:39.334Z,1016.87
2018-06-13T11:59:39.875Z,1016.94
2018-06-13T12:00:39.666Z,1016.92
2018-06-13T12:01:39.532Z,1016.92
2018-06-13T12:02:39.405Z,1016.89
2018-06-13T12:03:39.437Z,1016.92
2018-06-13T12:04:39.428Z,1016.98
2018-06-13T12:05:39.431Z,1016.96
2018-06-13T12:06:39.628Z,1016.93
2018-06-13T12:07:39.446Z,1016.97
2018-06-13T12:08:39.586Z,1016.99